createdAt,value
2023-05-18T00:03:17.274Z,88.17
2023-05-18T00:07:34.459Z,88.45
2023-05-18T00:11:46.956Z,87.80
2023-05-18T00:15:59.493Z,85.35
2023-05-18T00:20:12.606Z,85.27
2023-05-18T00:24:25.058Z,86.08
2023-05-18T00:28:37.400Z,86.85
2023-05-18T00:32:49.786Z,87.59
2023-05-18T00:37:02.174Z,87.17
2023-05-18T00:41:14.598Z,86.59
2023-05-18T00:45:27.637Z,86.16
2023-05-18T00:49:40.064Z,86.13
2023-05-18T00:53:54.694Z,85.54
2023-05-18T00:58:07.405Z,85.50
2023-05-18T01:02:23.151Z,85.04
2023-05-18T01:06:36.566Z,86.46
2023-05-18T01:10:56.746Z,86.95
2023-05-18T01:15:14.073Z,87.90
2023-05-18T01:19:59.840Z,88.52
2023-05-18T01:24:19.457Z,88.21
2023-05-18T01:28:33.812Z,85.23
2023-05-18T01:32:47.297Z,85.66
2023-05-18T01:36:59.882Z,85.72
2023-05-18T01:41:21.593Z,85.76
2023-05-18T01:45:38.026Z,85.25
2023-05-18T01:50:17.449Z,85.50
2023-05-18T01:54:32.033Z,85.61
2023-05-18T01:58:44.753Z,85.34
2023-05-18T02:02:57.411Z,85.67
2023-05-18T02:07:09.854Z,85.84
2023-05-18T02:11:22.237Z,86.94
2023-05-18T02:15:34.668Z,87.55
2023-05-18T02:19:47.027Z,86.29
2023-05-18T02:24:00.797Z,86.09
2023-05-18T02:28:13.169Z,86.51
2023-05-18T02:32:25.720Z,87.34
2023-05-18T02:36:40.485Z,87.93
2023-05-18T02:40:53.040Z,88.09
2023-05-18T02:45:06.295Z,88.19
2023-05-18T02:49:19.171Z,84.90
2023-05-18T02:53:32.087Z,86.05
2023-05-18T02:57:50.319Z,87.25
2023-05-18T03:02:08.026Z,87.36
2023-05-18T03:06:26.913Z,88.22
2023-05-18T03:10:40.815Z,88.41
2023-05-18T03:14:53.320Z,88.18
2023-05-18T03:19:05.734Z,87.16
2023-05-18T03:23:22.330Z,85.92
2023-05-18T03:27:35.798Z,84.80
2023-05-18T03:31:48.680Z,85.26
2023-05-18T03:36:04.262Z,85.37
2023-05-18T03:40:18.043Z,84.84
2023-05-18T03:44:32.554Z,85.29
2023-05-18T03:48:45.215Z,84.73
2023-05-18T03:52:59.614Z,83.99
2023-05-18T03:57:11.946Z,84.50
2023-05-18T04:01:25.392Z,83.38
2023-05-18T04:05:37.716Z,82.41
2023-05-18T04:09:52.337Z,82.61
2023-05-18T04:14:05.589Z,81.25
2023-05-18T04:18:18.017Z,81.81
2023-05-18T04:22:31.575Z,80.05
2023-05-18T04:26:44.064Z,79.43
2023-05-18T04:30:56.589Z,78.26
2023-05-18T04:35:11.278Z,75.33
2023-05-18T04:39:25.676Z,73.84
2023-05-18T04:43:38.811Z,76.48
2023-05-18T04:47:54.362Z,75.04
2023-05-18T04:52:10.578Z,67.34
2023-05-18T04:56:23.532Z,65.42
2023-05-18T05:00:35.928Z,65.45
2023-05-18T05:04:48.520Z,62.66
2023-05-18T05:09:00.982Z,59.39
2023-05-18T05:13:13.468Z,58.16
2023-05-18T05:17:26.952Z,60.03
2023-05-18T05:21:40.549Z,58.71
2023-05-18T05:25:53.126Z,56.42
2023-05-18T05:30:07.649Z,55.52
2023-05-18T05:34:21.995Z,54.43
2023-05-18T05:38:34.780Z,52.96
2023-05-18T05:42:47.299Z,54.03
2023-05-18T05:46:59.741Z,53.93
2023-05-18T05:51:12.844Z,55.72
2023-05-18T05:55:25.510Z,56.68
2023-05-18T05:59:38.826Z,57.42
2023-05-18T06:03:52.256Z,56.64
2023-05-18T06:08:05.236Z,56.34
2023-05-18T06:12:17.935Z,54.53
2023-05-18T06:16:30.588Z,55.35
2023-05-18T06:20:45.330Z,53.67
2023-05-18T06:24:59.882Z,52.58
2023-05-18T06:29:28.568Z,52.54
2023-05-18T06:33:46.648Z,53.04
2023-05-18T06:38:00.686Z,52.89
2023-05-18T06:42:13.143Z,54.25
2023-05-18T06:46:35.682Z,52.19
2023-05-18T06:50:54.128Z,52.50
2023-05-18T06:55:07.946Z,52.41
2023-05-18T06:59:20.683Z,53.47
2023-05-18T07:03:33.394Z,52.66
2023-05-18T07:07:45.918Z,52.68
2023-05-18T07:11:58.423Z,53.11
2023-05-18T07:16:10.913Z,53.15
2023-05-18T07:20:25.970Z,53.29
2023-05-18T07:24:38.808Z,50.91
2023-05-18T07:28:51.926Z,51.79
2023-05-18T07:33:04.774Z,53.19
2023-05-18T07:37:17.492Z,51.28
2023-05-18T07:41:31.488Z,49.46
2023-05-18T07:45:43.948Z,48.08
2023-05-18T07:49:56.589Z,51.54
2023-05-18T07:54:09.398Z,52.10
2023-05-18T07:58:21.863Z,47.85
2023-05-18T08:02:36.065Z,47.13
2023-05-18T08:06:48.409Z,48.07
2023-05-18T08:11:00.884Z,46.98
2023-05-18T08:15:13.337Z,46.84
2023-05-18T08:19:26.305Z,47.12
2023-05-18T08:23:39.380Z,47.20
2023-05-18T08:27:51.765Z,47.60
2023-05-18T08:32:07.413Z,45.54
2023-05-18T08:36:20.025Z,46.55
2023-05-18T08:40:47.874Z,45.37
2023-05-18T08:45:13.470Z,44.11
2023-05-18T08:49:27.665Z,47.98
2023-05-18T08:53:43.541Z,47.65
2023-05-18T08:57:58.341Z,49.56
2023-05-18T09:02:10.936Z,46.60
2023-05-18T09:06:26.568Z,46.80
2023-05-18T09:10:40.220Z,48.06
2023-05-18T09:14:53.959Z,49.46
2023-05-18T09:19:06.853Z,46.67
2023-05-18T09:23:19.308Z,48.33
2023-05-18T09:27:33.271Z,48.17
2023-05-18T09:31:47.035Z,47.02
2023-05-18T09:35:59.551Z,43.97
2023-05-18T09:40:12.422Z,43.63
2023-05-18T09:44:37.294Z,45.56
2023-05-18T09:48:51.787Z,46.21
2023-05-18T09:53:08.659Z,44.65
2023-05-18T09:57:22.405Z,44.04
2023-05-18T10:01:35.191Z,45.59
2023-05-18T10:05:48.332Z,43.66
2023-05-18T10:10:05.082Z,42.57
2023-05-18T10:14:25.838Z,40.64
2023-05-18T10:18:39.096Z,42.17
2023-05-18T10:22:52.674Z,40.90
2023-05-18T10:27:10.536Z,44.14
2023-05-18T10:31:24.990Z,44.67
2023-05-18T10:35:39.366Z,45.70
2023-05-18T10:39:55.158Z,47.22
2023-05-18T10:44:08.306Z,50.66
2023-05-18T10:48:22.566Z,48.90
2023-05-18T10:52:37.889Z,53.85
2023-05-18T10:56:54.186Z,55.16
2023-05-18T11:01:11.002Z,50.91
2023-05-18T11:05:27.188Z,51.81
2023-05-18T11:09:43.723Z,52.38
2023-05-18T11:14:04.278Z,51.29
2023-05-18T11:18:16.833Z,50.69
2023-05-18T11:22:51.793Z,48.23
2023-05-18T11:27:16.672Z,50.08
2023-05-18T11:31:45.924Z,48.05
2023-05-18T11:36:15.164Z,47.47
2023-05-18T11:40:47.144Z,46.41
2023-05-18T11:45:09.898Z,47.42
2023-05-18T11:49:27.624Z,45.94
2023-05-18T11:53:41.700Z,46.61
2023-05-18T11:57:54.483Z,46.06
2023-05-18T12:02:07.799Z,48.96
2023-05-18T12:06:21.463Z,52.79
2023-05-18T12:10:36.970Z,54.08
2023-05-18T12:15:00.521Z,55.88
2023-05-18T12:19:12.902Z,55.21
2023-05-18T12:23:41.119Z,57.93
2023-05-18T12:27:54.918Z,69.64
2023-05-18T12:32:12.204Z,72.08
2023-05-18T12:36:24.760Z,71.35
2023-05-18T12:40:45.017Z,78.14
2023-05-18T12:44:57.565Z,74.55
2023-05-18T12:49:10.783Z,69.11
2023-05-18T12:53:24.543Z,67.93
2023-05-18T12:57:41.771Z,66.19
2023-05-18T13:01:59.032Z,66.80
2023-05-18T13:06:12.974Z,67.04
2023-05-18T13:10:25.428Z,66.64
2023-05-18T13:14:38.863Z,62.79
2023-05-18T13:19:02.227Z,61.21
2023-05-18T13:23:34.793Z,62.39
2023-05-18T13:27:49.049Z,62.16
2023-05-18T13:32:01.512Z,64.52
2023-05-18T13:36:14.102Z,64.62
2023-05-18T13:40:26.478Z,59.17
2023-05-18T13:44:38.790Z,59.11
2023-05-18T13:48:51.272Z,55.73
2023-05-18T13:53:03.711Z,56.25
2023-05-18T13:57:16.583Z,57.77
2023-05-18T14:01:32.985Z,58.27
2023-05-18T14:05:45.382Z,60.56
2023-05-18T14:09:57.643Z,59.74
2023-05-18T14:14:09.984Z,60.10
2023-05-18T14:18:22.552Z,58.92
2023-05-18T14:22:35.473Z,58.02
2023-05-18T14:26:48.063Z,57.14
2023-05-18T14:31:01.329Z,56.30
2023-05-18T14:35:16.351Z,57.81
2023-05-18T14:39:29.004Z,59.30
2023-05-18T14:43:41.420Z,59.03
2023-05-18T14:47:54.286Z,59.10
2023-05-18T14:52:06.951Z,58.29
2023-05-18T14:56:22.127Z,59.07
2023-05-18T15:00:34.603Z,59.92
2023-05-18T15:04:47.194Z,60.83
2023-05-18T15:08:59.642Z,62.10
2023-05-18T15:13:12.045Z,61.24
2023-05-18T15:17:24.697Z,59.17
2023-05-18T15:21:37.096Z,57.73
2023-05-18T15:25:51.761Z,59.26
2023-05-18T15:30:11.746Z,60.55
2023-05-18T15:34:24.522Z,60.74
2023-05-18T15:38:39.850Z,60.28
2023-05-18T15:42:52.480Z,60.46
2023-05-18T15:47:05.508Z,60.67
2023-05-18T15:51:18.133Z,60.80
2023-05-18T15:55:30.690Z,61.47
2023-05-18T15:59:43.991Z,63.27
2023-05-18T16:03:56.488Z,63.00
2023-05-18T16:08:09.173Z,61.89
2023-05-18T16:12:21.889Z,61.95
2023-05-18T16:16:34.294Z,63.94
2023-05-18T16:20:47.088Z,64.02
2023-05-18T16:24:59.611Z,63.99
2023-05-18T16:29:12.100Z,64.10
2023-05-18T16:33:25.934Z,65.35
2023-05-18T16:37:42.612Z,65.32
2023-05-18T16:41:55.053Z,65.96
2023-05-18T16:46:07.594Z,65.51
2023-05-18T16:50:20.150Z,66.07
2023-05-18T16:54:33.965Z,66.29
2023-05-18T16:58:52.324Z,67.14
2023-05-18T17:03:05.219Z,68.78
2023-05-18T17:07:18.114Z,69.54
2023-05-18T17:11:30.686Z,70.69
2023-05-18T17:15:43.588Z,72.48
2023-05-18T17:19:56.217Z,73.16
2023-05-18T17:24:08.988Z,74.28
2023-05-18T17:28:21.478Z,74.32
2023-05-18T17:32:34.089Z,74.60
2023-05-18T17:36:46.971Z,75.50
2023-05-18T17:40:59.589Z,76.33
2023-05-18T17:45:12.332Z,76.49
2023-05-18T17:49:24.949Z,76.35
2023-05-18T17:53:42.277Z,75.83
2023-05-18T17:57:54.719Z,75.25
2023-05-18T18:02:07.573Z,75.45
2023-05-18T18:06:23.078Z,75.47
2023-05-18T18:10:36.171Z,75.06
2023-05-18T18:14:48.657Z,75.54
2023-05-18T18:19:01.061Z,74.99
2023-05-18T18:23:14.342Z,74.42
2023-05-18T18:27:26.830Z,75.81
2023-05-18T18:31:39.507Z,74.70
2023-05-18T18:35:57.013Z,75.97
2023-05-18T18:40:11.709Z,76.21
2023-05-18T18:44:24.549Z,76.93
2023-05-18T18:48:37.045Z,78.64
2023-05-18T18:52:51.260Z,78.84
2023-05-18T18:57:04.392Z,78.33
2023-05-18T19:01:17.154Z,79.19
2023-05-18T19:05:31.451Z,78.69
2023-05-18T19:09:44.371Z,79.67
2023-05-18T19:13:56.905Z,79.75
2023-05-18T19:18:09.458Z,78.86
2023-05-18T19:22:22.115Z,78.31
2023-05-18T19:26:35.103Z,79.28
2023-05-18T19:30:48.525Z,78.82
2023-05-18T19:35:01.193Z,79.22
2023-05-18T19:39:16.982Z,79.39
2023-05-18T19:43:29.588Z,79.38
2023-05-18T19:47:41.998Z,79.59
2023-05-18T19:51:54.542Z,79.81
2023-05-18T19:56:07.090Z,79.14
2023-05-18T20:00:19.693Z,79.53
2023-05-18T20:04:33.844Z,79.83
2023-05-18T20:08:46.458Z,79.86
2023-05-18T20:12:59.162Z,79.54
2023-05-18T20:17:11.601Z,80.12
2023-05-18T20:21:24.210Z,79.95
2023-05-18T20:25:37.427Z,80.74
2023-05-18T20:29:49.957Z,80.32
2023-05-18T20:34:02.471Z,80.79
2023-05-18T20:38:15.116Z,80.70
2023-05-18T20:42:40.830Z,80.04
2023-05-18T20:46:54.692Z,79.50
2023-05-18T20:51:15.236Z,78.59
2023-05-18T20:55:29.232Z,77.74
2023-05-18T20:59:41.648Z,77.07
2023-05-18T21:03:54.822Z,77.59
2023-05-18T21:08:07.665Z,78.15
2023-05-18T21:12:20.414Z,78.62
2023-05-18T21:16:33.004Z,78.28
2023-05-18T21:20:45.592Z,77.83
2023-05-18T21:24:58.327Z,78.36
2023-05-18T21:29:10.930Z,78.45
2023-05-18T21:33:23.936Z,78.58
2023-05-18T21:37:37.215Z,78.37
2023-05-18T21:41:49.727Z,78.70
2023-05-18T21:46:04.383Z,79.11
2023-05-18T21:50:18.301Z,78.88
2023-05-18T21:54:35.093Z,78.48
2023-05-18T21:58:47.494Z,78.55
2023-05-18T22:03:00.125Z,78.31
2023-05-18T22:07:14.229Z,77.66
2023-05-18T22:11:27.001Z,77.61
2023-05-18T22:15:41.443Z,78.13
2023-05-18T22:19:54.098Z,78.41
2023-05-18T22:24:06.741Z,77.49
2023-05-18T22:28:22.119Z,77.78
2023-05-18T22:32:35.106Z,78.75
2023-05-18T22:36:47.773Z,81.14
2023-05-18T22:41:00.276Z,81.58
2023-05-18T22:45:12.694Z,80.80
2023-05-18T22:49:28.380Z,80.16
2023-05-18T22:53:41.147Z,80.93
2023-05-18T22:57:53.540Z,81.11
2023-05-18T23:02:06.535Z,82.53
2023-05-18T23:06:22.487Z,84.18
2023-05-18T23:10:35.086Z,84.93
2023-05-18T23:14:50.133Z,86.00
2023-05-18T23:19:02.653Z,86.36
2023-05-18T23:23:15.334Z,86.88
2023-05-18T23:27:28.212Z,86.42
2023-05-18T23:31:41.706Z,85.43
2023-05-18T23:35:56.086Z,85.96
2023-05-18T23:40:14.584Z,86.11
2023-05-18T23:44:27.932Z,86.46
2023-05-18T23:48:40.775Z,84.76
2023-05-18T23:52:54.521Z,84.19
2023-05-18T23:57:07.911Z,84.78
